createdAt,value
2024-02-17T00:00:40.172Z,19.80
2024-02-17T00:03:13.613Z,18.58
2024-02-17T00:05:47.137Z,19.67
2024-02-17T00:08:16.207Z,18.02
2024-02-17T00:10:45.177Z,17.02
2024-02-17T00:13:13.924Z,19.50
2024-02-17T00:15:56.911Z,20.90
2024-02-17T00:18:30.230Z,17.92
2024-02-17T00:21:07.447Z,17.35
2024-02-17T00:24:01.358Z,21.20
2024-02-17T00:26:34.912Z,18.67
2024-02-17T00:29:09.135Z,17.45
2024-02-17T00:31:39.665Z,18.63
2024-02-17T00:34:33.484Z,17.20
2024-02-17T00:37:04.380Z,17.55
2024-02-17T00:39:36.096Z,18.70
2024-02-17T00:42:10.662Z,18.63
2024-02-17T00:44:39.885Z,18.10
2024-02-17T00:47:09.808Z,14.65
2024-02-17T00:49:38.757Z,15.98
2024-02-17T00:52:08.530Z,17.08
2024-02-17T00:55:14.522Z,16.45
2024-02-17T00:57:42.923Z,18.65
2024-02-17T01:00:13.058Z,16.27
2024-02-17T01:02:43.101Z,16.80
2024-02-17T01:05:13.454Z,17.30
2024-02-17T01:07:42.380Z,17.50
2024-02-17T01:10:11.460Z,17.13
2024-02-17T01:12:40.228Z,17.75
2024-02-17T01:15:10.803Z,16.42
2024-02-17T01:17:39.397Z,17.13
2024-02-17T01:20:11.536Z,18.08
2024-02-17T01:22:40.329Z,18.25
2024-02-17T01:25:12.881Z,16.20
2024-02-17T01:27:42.037Z,20.15
2024-02-17T01:30:11.802Z,19.30
2024-02-17T01:32:41.971Z,15.30
2024-02-17T01:35:14.726Z,18.67
2024-02-17T01:37:45.530Z,22.20
2024-02-17T01:40:20.697Z,17.40
2024-02-17T01:42:52.874Z,17.80
2024-02-17T01:45:22.060Z,20.23
2024-02-17T01:47:53.827Z,20.05
2024-02-17T01:50:27.555Z,20.33
2024-02-17T01:52:57.436Z,19.55
2024-02-17T01:55:44.829Z,18.10
2024-02-17T01:58:13.776Z,20.40
2024-02-17T02:00:43.549Z,20.52
2024-02-17T02:03:14.997Z,23.83
2024-02-17T02:05:45.829Z,18.02
2024-02-17T02:08:15.884Z,18.80
2024-02-17T02:11:06.179Z,21.02
2024-02-17T02:13:38.425Z,18.63
2024-02-17T02:16:10.247Z,18.75
2024-02-17T02:18:41.796Z,18.73
2024-02-17T02:21:12.605Z,16.63
2024-02-17T02:27:15.435Z,14.38
2024-02-17T02:29:47.151Z,19.38
2024-02-17T02:32:15.597Z,18.58
2024-02-17T02:34:44.977Z,16.70
2024-02-17T02:37:13.787Z,18.13
2024-02-17T02:39:42.512Z,19.50
2024-02-17T02:42:15.170Z,17.08
2024-02-17T02:44:43.835Z,18.88
2024-02-17T02:47:13.027Z,16.85
2024-02-17T02:49:41.823Z,17.25
2024-02-17T02:52:10.689Z,17.85
2024-02-17T02:54:39.317Z,18.75
2024-02-17T02:57:07.949Z,23.15
2024-02-17T02:59:38.032Z,16.08
2024-02-17T03:02:07.400Z,20.70
2024-02-17T03:04:36.595Z,15.88
2024-02-17T03:07:14.336Z,18.48
2024-02-17T03:09:43.123Z,16.33
2024-02-17T03:12:11.796Z,16.85
2024-02-17T03:14:43.509Z,18.38
2024-02-17T03:17:12.522Z,22.17
2024-02-17T03:19:43.932Z,20.15
2024-02-17T03:22:12.306Z,16.75
2024-02-17T03:24:40.710Z,14.57
2024-02-17T03:27:09.762Z,16.83
2024-02-17T03:29:38.274Z,13.65
2024-02-17T03:32:09.628Z,16.80
2024-02-17T03:34:40.756Z,14.90
2024-02-17T03:37:09.910Z,17.05
2024-02-17T03:39:39.429Z,17.15
2024-02-17T03:42:10.408Z,17.02
2024-02-17T03:44:38.993Z,16.45
2024-02-17T03:47:11.223Z,14.68
2024-02-17T03:49:40.335Z,14.57
2024-02-17T03:52:09.708Z,15.40
2024-02-17T03:54:40.186Z,18.88
2024-02-17T03:57:09.057Z,15.38
2024-02-17T03:59:38.197Z,16.38
2024-02-17T04:02:08.633Z,14.50
2024-02-17T04:04:37.345Z,19.58
2024-02-17T04:13:19.571Z,19.33
2024-02-17T04:15:48.171Z,17.95
2024-02-17T04:18:18.072Z,19.45
2024-02-17T04:20:47.822Z,18.15
2024-02-17T04:23:16.700Z,20.23
2024-02-17T04:25:45.187Z,17.55
2024-02-17T05:39:26.404Z,23.10
2024-02-17T05:42:08.073Z,19.35
2024-02-17T05:44:37.142Z,18.02
2024-02-17T05:52:27.947Z,21.42
2024-02-17T05:54:56.538Z,21.25
2024-02-17T06:37:45.408Z,22.48
2024-02-17T07:15:24.438Z,27.25
2024-02-17T07:37:22.234Z,23.10
2024-02-17T07:40:26.637Z,21.75
2024-02-17T07:42:55.573Z,24.42
2024-02-17T07:45:31.504Z,21.60
2024-02-17T07:51:11.495Z,21.50
2024-02-17T08:00:30.462Z,21.52
2024-02-17T08:03:50.767Z,20.85
2024-02-17T08:06:38.503Z,25.60
2024-02-17T08:09:17.350Z,23.38
2024-02-17T08:12:17.402Z,20.40
2024-02-17T08:20:17.916Z,25.20
2024-02-17T08:23:08.366Z,15.95
2024-02-17T08:25:38.807Z,23.27
2024-02-17T08:28:08.913Z,17.63
2024-02-17T08:30:51.698Z,21.30
2024-02-17T08:33:21.197Z,22.60
2024-02-17T08:36:20.890Z,21.77
2024-02-17T08:39:00.131Z,22.90
2024-02-17T08:44:34.564Z,22.98
2024-02-17T08:45:02.157Z,20.23
2024-02-17T08:47:36.089Z,22.13
2024-02-17T08:50:26.069Z,21.13
2024-02-17T08:53:28.138Z,20.42
2024-02-17T08:56:30.347Z,23.52
2024-02-17T08:59:06.032Z,19.17
2024-02-17T09:02:12.631Z,26.10
2024-02-17T09:04:51.103Z,24.50
2024-02-17T09:07:35.112Z,24.50
2024-02-17T09:10:04.577Z,21.75
2024-02-17T09:12:34.508Z,24.70
2024-02-17T09:15:06.723Z,22.42
2024-02-17T09:17:37.273Z,22.00
2024-02-17T09:20:11.352Z,22.25
2024-02-17T09:22:44.957Z,22.25
2024-02-17T09:25:13.440Z,24.77
2024-02-17T09:27:50.006Z,24.10
2024-02-17T09:31:13.096Z,20.30
2024-02-17T09:39:50.377Z,19.67
2024-02-17T11:04:40.191Z,25.83
2024-02-17T11:07:55.073Z,24.40
2024-02-17T11:15:45.556Z,23.73
2024-02-17T11:22:34.590Z,20.10
2024-02-17T11:26:44.237Z,23.90
2024-02-17T11:30:40.428Z,26.17
2024-02-17T11:34:26.084Z,25.02
2024-02-17T11:37:53.931Z,23.33
2024-02-17T11:41:03.635Z,22.65
2024-02-17T11:52:27.015Z,23.63
2024-02-17T12:01:11.532Z,26.95
2024-02-17T12:10:51.373Z,21.17
2024-02-17T12:13:27.698Z,24.52
2024-02-17T12:20:34.195Z,24.13
2024-02-17T12:23:41.413Z,20.83
2024-02-17T12:34:10.695Z,18.35
2024-02-17T12:41:26.772Z,19.77
2024-02-17T12:43:57.410Z,21.55
2024-02-17T12:46:30.391Z,19.50
2024-02-17T12:49:00.545Z,22.33
2024-02-17T12:51:38.726Z,19.83
2024-02-17T12:54:11.613Z,23.08
2024-02-17T12:56:40.416Z,16.13
2024-02-17T12:59:12.885Z,21.10
2024-02-17T13:01:41.818Z,18.48
2024-02-17T13:04:10.780Z,14.90
2024-02-17T13:06:41.214Z,16.92
2024-02-17T13:09:10.345Z,18.05
2024-02-17T13:11:43.953Z,20.00
2024-02-17T13:14:13.907Z,22.08
2024-02-17T13:16:42.640Z,20.17
2024-02-17T13:19:11.676Z,18.33
2024-02-17T13:25:27.437Z,17.63
2024-02-17T13:27:56.792Z,17.52
2024-02-17T13:39:54.944Z,18.85
2024-02-17T13:42:23.811Z,15.20
2024-02-17T13:44:52.533Z,16.60
2024-02-17T13:47:21.216Z,12.98
2024-02-17T13:49:50.062Z,16.70
2024-02-17T13:52:21.831Z,15.05
2024-02-17T13:54:50.802Z,15.43
2024-02-17T13:58:11.736Z,16.95
2024-02-17T14:01:08.068Z,16.70
2024-02-17T14:04:10.017Z,18.00
2024-02-17T14:06:38.835Z,14.63
2024-02-17T14:09:59.236Z,16.23
2024-02-17T14:13:00.474Z,16.25
2024-02-17T14:15:35.149Z,18.15
2024-02-17T14:18:12.127Z,14.35
2024-02-17T14:20:50.748Z,17.65
2024-02-17T14:23:19.802Z,15.70
2024-02-17T14:25:52.152Z,12.80
2024-02-17T14:28:26.891Z,15.23
2024-02-17T14:30:59.749Z,14.00
2024-02-17T14:33:38.851Z,15.80
2024-02-17T14:36:20.679Z,17.00
2024-02-17T14:38:51.727Z,14.50
2024-02-17T14:41:24.034Z,16.10
2024-02-17T14:43:55.979Z,13.00
2024-02-17T14:46:35.756Z,12.35
2024-02-17T14:49:05.826Z,15.85
2024-02-17T14:51:38.590Z,12.90
2024-02-17T14:54:12.578Z,16.67
2024-02-17T14:56:45.698Z,13.10
2024-02-17T14:59:14.694Z,14.98
2024-02-17T15:02:07.383Z,14.30
2024-02-17T15:04:43.046Z,17.40
2024-02-17T15:07:11.981Z,16.67
2024-02-17T15:09:44.191Z,19.77
2024-02-17T15:12:13.257Z,17.75
2024-02-17T15:14:44.045Z,22.52
2024-02-17T15:17:17.405Z,18.85
2024-02-17T15:19:51.910Z,20.38
2024-02-17T15:22:21.095Z,16.15
2024-02-17T15:24:50.093Z,21.80
2024-02-17T15:27:20.072Z,22.05
2024-02-17T15:29:50.800Z,16.95
2024-02-17T15:32:36.999Z,21.20
2024-02-17T15:35:10.271Z,20.80
2024-02-17T15:37:39.210Z,16.13
2024-02-17T15:40:10.963Z,16.08
2024-02-17T15:42:42.680Z,20.17
2024-02-17T15:45:12.272Z,18.83
2024-02-17T15:47:43.945Z,17.65
2024-02-17T15:50:15.318Z,18.83
2024-02-17T15:52:43.970Z,18.90
2024-02-17T15:55:12.926Z,20.88
2024-02-17T15:57:41.783Z,17.92
2024-02-17T16:00:12.273Z,18.13
2024-02-17T16:02:42.714Z,18.25
2024-02-17T16:05:16.644Z,20.23
2024-02-17T16:07:48.865Z,17.98
2024-02-17T16:10:20.293Z,19.95
2024-02-17T16:12:50.428Z,23.70
2024-02-17T16:15:22.426Z,22.17
2024-02-17T16:17:57.137Z,19.23
2024-02-17T16:20:26.268Z,20.17
2024-02-17T16:22:58.079Z,22.85
2024-02-17T16:25:26.844Z,21.95
2024-02-17T16:28:05.441Z,22.17
2024-02-17T16:34:16.247Z,19.35
2024-02-17T16:36:47.922Z,22.20
2024-02-17T16:39:17.189Z,19.63
2024-02-17T16:41:51.681Z,20.90
2024-02-17T16:44:23.282Z,23.75
2024-02-17T16:46:57.011Z,22.98
2024-02-17T16:49:27.096Z,19.90
2024-02-17T16:51:55.628Z,22.58
2024-02-17T16:54:24.244Z,21.58
2024-02-17T16:56:53.840Z,20.38
2024-02-17T16:59:22.438Z,24.27
2024-02-17T17:01:50.991Z,23.58
2024-02-17T17:04:19.784Z,20.30
2024-02-17T17:06:50.104Z,23.02
2024-02-17T17:09:18.804Z,20.15
2024-02-17T17:11:47.442Z,17.08
2024-02-17T17:16:48.551Z,19.65
2024-02-17T17:19:16.967Z,20.38
2024-02-17T17:21:45.568Z,17.73
2024-02-17T17:24:15.412Z,22.08
2024-02-17T17:26:50.191Z,20.88
2024-02-17T17:29:19.491Z,23.02
2024-02-17T17:31:48.830Z,21.98
2024-02-17T17:34:18.303Z,23.52
2024-02-17T17:36:47.839Z,19.77
2024-02-17T17:39:18.068Z,20.35
2024-02-17T17:41:46.605Z,20.73
2024-02-17T17:44:18.083Z,21.10
2024-02-17T17:46:50.760Z,22.30
2024-02-17T17:49:19.151Z,19.90
2024-02-17T17:51:47.908Z,20.75
2024-02-17T17:54:17.989Z,18.55
2024-02-17T17:56:46.372Z,22.23
2024-02-17T17:59:16.836Z,25.15
2024-02-17T18:01:45.225Z,20.38
2024-02-17T18:04:13.655Z,22.55
2024-02-17T18:06:42.699Z,19.70
2024-02-17T18:09:11.386Z,19.55
2024-02-17T18:11:43.828Z,23.33
2024-02-17T18:14:42.581Z,20.75
2024-02-17T18:17:34.791Z,22.30
2024-02-17T18:20:04.367Z,22.60
2024-02-17T18:22:42.702Z,19.83
2024-02-17T18:25:11.629Z,20.92
2024-02-17T18:27:41.583Z,19.50
2024-02-17T18:30:10.889Z,22.15
2024-02-17T18:32:39.238Z,22.50
2024-02-17T18:35:08.986Z,23.88
2024-02-17T18:38:13.111Z,20.42
2024-02-17T18:40:41.512Z,20.10
2024-02-17T18:43:11.511Z,19.92
2024-02-17T18:45:40.013Z,22.95
2024-02-17T18:48:09.437Z,23.88
2024-02-17T18:50:38.661Z,23.98
2024-02-17T18:53:06.986Z,21.08
2024-02-17T18:55:35.219Z,21.25
2024-02-17T18:58:03.639Z,22.67
2024-02-17T19:00:33.498Z,21.70
2024-02-17T19:03:02.045Z,21.67
2024-02-17T19:05:30.541Z,23.10
2024-02-17T19:07:58.860Z,24.15
2024-02-17T19:10:27.700Z,24.77
2024-02-17T19:12:56.317Z,25.30
2024-02-17T19:15:24.742Z,24.35
2024-02-17T19:17:55.156Z,23.40
2024-02-17T19:20:23.706Z,25.15
2024-02-17T19:22:52.299Z,25.42
2024-02-17T19:25:20.813Z,25.42
2024-02-17T19:27:49.173Z,23.40
2024-02-17T19:30:17.740Z,25.92
2024-02-17T19:32:46.069Z,23.15
2024-02-17T19:35:16.387Z,27.35
2024-02-17T19:37:44.854Z,27.45
2024-02-17T19:40:13.682Z,22.50
2024-02-17T19:42:42.044Z,27.13
2024-02-17T19:45:11.839Z,23.08
2024-02-17T19:47:40.297Z,22.00
2024-02-17T19:50:11.030Z,25.40
2024-02-17T19:52:40.838Z,27.15
2024-02-17T19:55:30.548Z,25.45
2024-02-17T19:57:59.195Z,26.20
2024-02-17T20:00:27.954Z,26.58
2024-02-17T20:02:56.431Z,23.63
2024-02-17T20:05:25.793Z,24.38
2024-02-17T20:07:55.621Z,28.17
2024-02-17T20:10:23.946Z,26.63
2024-02-17T20:12:52.719Z,27.65
2024-02-17T20:15:21.309Z,28.90
2024-02-17T20:17:49.833Z,30.40
2024-02-17T20:20:19.962Z,26.10
2024-02-17T20:22:48.574Z,26.35
2024-02-17T20:25:18.329Z,29.17
2024-02-17T20:27:46.826Z,29.40
2024-02-17T20:30:15.921Z,32.08
2024-02-17T20:32:44.529Z,28.13
2024-02-17T20:35:13.108Z,23.55
2024-02-17T20:37:41.468Z,30.48
2024-02-17T20:40:14.110Z,27.23
2024-02-17T20:42:43.884Z,25.17
2024-02-17T20:45:12.567Z,21.63
2024-02-17T20:47:45.150Z,26.90
2024-02-17T20:50:14.371Z,23.27
2024-02-17T20:52:43.164Z,24.15
2024-02-17T20:55:11.532Z,21.90
2024-02-17T20:57:40.259Z,21.88
2024-02-17T21:00:12.426Z,20.35
2024-02-17T21:02:40.723Z,22.98
2024-02-17T21:05:10.482Z,22.30
2024-02-17T21:07:38.952Z,22.20
2024-02-17T21:10:08.660Z,20.58
2024-02-17T21:12:36.996Z,24.77
2024-02-17T21:15:06.669Z,20.77
2024-02-17T21:17:36.441Z,19.85
2024-02-17T21:20:05.795Z,20.50
2024-02-17T21:22:34.524Z,21.42
2024-02-17T21:25:03.401Z,27.48
2024-02-17T21:27:31.979Z,19.88
2024-02-17T21:30:00.378Z,19.40
2024-02-17T21:32:29.149Z,23.50
2024-02-17T21:34:59.242Z,19.30
2024-02-17T21:37:27.711Z,18.80
2024-02-17T21:39:56.364Z,22.75
2024-02-17T21:42:25.340Z,19.77
2024-02-17T21:44:53.998Z,19.00
2024-02-17T21:47:22.353Z,20.10
2024-02-17T21:49:50.668Z,19.17
2024-02-17T21:52:20.588Z,20.60
2024-02-17T21:54:49.008Z,21.70
2024-02-17T21:57:17.943Z,18.58
2024-02-17T21:59:46.350Z,22.90
2024-02-17T22:02:14.785Z,17.58
2024-02-17T22:04:43.240Z,18.67
2024-02-17T22:07:11.639Z,16.02
2024-02-17T22:09:41.423Z,19.20
2024-02-17T22:12:12.374Z,15.70
2024-02-17T22:14:40.665Z,18.52
2024-02-17T22:17:08.960Z,17.60
2024-02-17T22:19:37.435Z,18.13
2024-02-17T22:22:06.631Z,17.38
2024-02-17T22:24:35.115Z,14.52
2024-02-17T22:27:05.576Z,22.65
2024-02-17T22:29:37.673Z,20.05
2024-02-17T22:32:06.938Z,17.05
2024-02-17T22:34:35.327Z,20.02
2024-02-17T22:37:03.692Z,20.48
2024-02-17T22:39:32.305Z,16.38
2024-02-17T22:42:00.648Z,15.18
2024-02-17T22:44:30.332Z,19.95
2024-02-17T22:46:58.685Z,18.58
2024-02-17T22:49:27.006Z,21.20
2024-02-17T22:51:55.627Z,17.63
2024-02-17T22:54:24.068Z,16.95
2024-02-17T22:56:52.401Z,18.70
2024-02-17T22:59:20.811Z,21.38
2024-02-17T23:01:50.627Z,16.27
2024-02-17T23:04:19.232Z,17.63
2024-02-17T23:06:48.861Z,14.00
2024-02-17T23:09:17.334Z,19.73
2024-02-17T23:11:45.955Z,18.95
2024-02-17T23:14:14.981Z,16.80
2024-02-17T23:16:44.722Z,14.95
2024-02-17T23:19:14.874Z,18.70
2024-02-17T23:21:46.467Z,18.58
2024-02-17T23:24:16.175Z,16.40
2024-02-17T23:26:45.401Z,16.00
2024-02-17T23:29:14.152Z,17.15
2024-02-17T23:31:44.123Z,16.17
2024-02-17T23:34:12.445Z,15.60
2024-02-17T23:36:42.346Z,15.43
2024-02-17T23:39:10.721Z,17.35
2024-02-17T23:41:41.764Z,16.50
2024-02-17T23:44:10.895Z,18.95
2024-02-17T23:46:39.191Z,14.05
2024-02-17T23:49:07.745Z,19.63
2024-02-17T23:51:36.520Z,14.27
2024-02-17T23:54:07.901Z,16.73
2024-02-17T23:56:37.289Z,17.15
2024-02-17T23:59:05.991Z,14.95
